Time,TemperatureF,DewpointF,PressureIn,WindDirection,WindDirectionDegrees,WindSpeedMPH,WindSpeedGustMPH,Humidity,HourlyPrecipIn,Conditions,Clouds,dailyrainin,SoftwareType,DateUTC
2013-02-11 00:00:00,39.0,32.0,-100.00,East,99,4.0,-999.0,77,0.00,,,-99.99,,2013-02-11 08:00:00,
2013-02-11 00:22:00,39.0,32.0,-100.00,East,99,4.0,-999.0,77,0.00,,,-99.99,,2013-02-11 08:22:00,
2013-02-11 00:32:00,39.0,32.0,-100.00,East,99,4.0,-999.0,77,0.00,,,-99.99,,2013-02-11 08:32:00,
2013-02-11 00:42:00,39.0,32.0,-100.00,East,99,4.0,-999.0,77,0.00,,,-99.99,,2013-02-11 08:42:00,
2013-02-11 00:52:00,39.0,32.0,-100.00,East,99,4.0,-999.0,77,0.00,,,-99.99,,2013-02-11 08:52:00,
2013-02-11 01:00:00,37.0,32.0,-100.00,ESE,113,4.0,-999.0,81,0.00,,,-99.99,,2013-02-11 09:00:00,
2013-02-11 01:22:00,37.0,32.0,-100.00,ESE,113,4.0,-999.0,81,0.00,,,-99.99,,2013-02-11 09:22:00,
2013-02-11 01:32:00,37.0,32.0,-100.00,ESE,113,4.0,-999.0,81,0.00,,,-99.99,,2013-02-11 09:32:00,
2013-02-11 01:42:00,37.0,32.0,-100.00,ESE,113,4.0,-999.0,81,0.00,,,-99.99,,2013-02-11 09:42:00,
2013-02-11 01:52:00,37.0,32.0,-100.00,ESE,113,4.0,-999.0,81,0.00,,,-99.99,,2013-02-11 09:52:00,
2013-02-11 02:00:00,35.0,30.0,-100.00,SSW,209,5.0,-999.0,82,0.00,,,-99.99,,2013-02-11 10:00:00,
2013-02-11 02:21:00,35.0,30.0,-100.00,SSW,209,5.0,-999.0,82,0.00,,,-99.99,,2013-02-11 10:21:00,
2013-02-11 02:32:00,35.0,30.0,-100.00,SSW,209,5.0,-999.0,82,0.00,,,-99.99,,2013-02-11 10:32:00,
2013-02-11 02:42:00,35.0,30.0,-100.00,SSW,209,5.0,-999.0,82,0.00,,,-99.99,,2013-02-11 10:42:00,
2013-02-11 02:52:00,35.0,30.0,-100.00,SSW,209,5.0,-999.0,82,0.00,,,-99.99,,2013-02-11 10:52:00,
2013-02-11 03:00:00,33.0,30.0,-100.00,SE,128,4.0,-999.0,86,0.00,,,-99.99,,2013-02-11 11:00:00,
2013-02-11 03:22:00,33.0,30.0,-100.00,SE,128,4.0,-999.0,86,0.00,,,-99.99,,2013-02-11 11:22:00,
2013-02-11 03:32:00,33.0,30.0,-100.00,SE,128,4.0,-999.0,86,0.00,,,-99.99,,2013-02-11 11:32:00,
2013-02-11 03:42:00,33.0,30.0,-100.00,SE,128,4.0,-999.0,86,0.00,,,-99.99,,2013-02-11 11:42:00,
2013-02-11 03:52:00,33.0,30.0,-100.00,SE,128,4.0,-999.0,86,0.00,,,-99.99,,2013-02-11 11:52:00,
2013-02-11 04:00:00,33.0,30.0,-100.00,SE,124,4.0,-999.0,87,0.00,,,-99.99,,2013-02-11 12:00:00,
2013-02-11 04:22:00,33.0,30.0,-100.00,SE,124,4.0,-999.0,87,0.00,,,-99.99,,2013-02-11 12:22:00,
2013-02-11 04:32:00,33.0,30.0,-100.00,SE,124,4.0,-999.0,87,0.00,,,-99.99,,2013-02-11 12:32:00,
2013-02-11 04:42:00,33.0,30.0,-100.00,SE,124,4.0,-999.0,87,0.00,,,-99.99,,2013-02-11 12:42:00,
2013-02-11 04:52:00,33.0,30.0,-100.00,SE,124,4.0,-999.0,87,0.00,,,-99.99,,2013-02-11 12:52:00,
2013-02-11 05:00:00,33.0,29.0,-100.00,East,89,4.0,-999.0,84,0.00,,,-99.99,,2013-02-11 13:00:00,
2013-02-11 05:22:00,33.0,29.0,-100.00,East,89,4.0,-999.0,84,0.00,,,-99.99,,2013-02-11 13:22:00,
2013-02-11 05:33:00,33.0,29.0,-100.00,East,89,4.0,-999.0,84,0.00,,,-99.99,,2013-02-11 13:33:00,
2013-02-11 05:42:00,33.0,29.0,-100.00,East,89,4.0,-999.0,84,0.00,,,-99.99,,2013-02-11 13:42:00,
2013-02-11 05:52:00,33.0,29.0,-100.00,East,89,4.0,-999.0,84,0.00,,,-99.99,,2013-02-11 13:52:00,
2013-02-11 06:00:00,35.0,30.0,-100.00,East,98,5.0,-999.0,80,0.00,,,-99.99,,2013-02-11 14:00:00,
2013-02-11 06:22:00,35.0,30.0,-100.00,East,98,5.0,-999.0,80,0.00,,,-99.99,,2013-02-11 14:22:00,
2013-02-11 06:33:00,35.0,30.0,-100.00,East,98,5.0,-999.0,80,0.00,,,-99.99,,2013-02-11 14:33:00,
2013-02-11 06:42:00,35.0,30.0,-100.00,East,98,5.0,-999.0,80,0.00,,,-99.99,,2013-02-11 14:42:00,
2013-02-11 06:52:00,35.0,30.0,-100.00,East,98,5.0,-999.0,80,0.00,,,-99.99,,2013-02-11 14:52:00,
2013-02-11 07:00:00,34.0,29.0,-100.00,SSE,152,3.0,-999.0,79,0.00,,,-99.99,,2013-02-11 15:00:00,
2013-02-11 07:22:00,34.0,29.0,-100.00,SSE,152,3.0,-999.0,79,0.00,,,-99.99,,2013-02-11 15:22:00,
2013-02-11 07:32:00,34.0,29.0,-100.00,SSE,152,3.0,-999.0,79,0.00,,,-99.99,,2013-02-11 15:32:00,
2013-02-11 07:42:00,34.0,29.0,-100.00,SSE,152,3.0,-999.0,79,0.00,,,-99.99,,2013-02-11 15:42:00,
2013-02-11 07:52:00,34.0,29.0,-100.00,SSE,152,3.0,-999.0,79,0.00,,,-99.99,,2013-02-11 15:52:00,
2013-02-11 08:00:00,36.0,30.0,-100.00,East,89,3.0,-999.0,78,0.00,,,-99.99,,2013-02-11 16:00:00,
2013-02-11 08:22:00,36.0,30.0,-100.00,East,89,3.0,-999.0,78,0.00,,,-99.99,,2013-02-11 16:22:00,
2013-02-11 08:32:00,36.0,30.0,-100.00,East,89,3.0,-999.0,78,0.00,,,-99.99,,2013-02-11 16:32:00,
2013-02-11 08:42:00,36.0,30.0,-100.00,East,89,3.0,-999.0,78,0.00,,,-99.99,,2013-02-11 16:42:00,
2013-02-11 08:52:00,36.0,30.0,-100.00,East,89,3.0,-999.0,78,0.00,,,-99.99,,2013-02-11 16:52:00,
2013-02-11 18:00:00,53.0,35.0,-100.00,West,278,3.0,-999.0,50,0.00,,,-99.99,,2013-02-12 02:00:00,
2013-02-11 18:22:00,53.0,35.0,-100.00,West,278,3.0,-999.0,50,0.00,,,-99.99,,2013-02-12 02:22:00,
2013-02-11 18:32:00,53.0,35.0,-100.00,West,278,3.0,-999.0,50,0.00,,,-99.99,,2013-02-12 02:32:00,
2013-02-11 18:42:00,53.0,35.0,-100.00,West,278,3.0,-999.0,50,0.00,,,-99.99,,2013-02-12 02:42:00,
2013-02-11 18:52:00,53.0,35.0,-100.00,West,278,3.0,-999.0,50,0.00,,,-99.99,,2013-02-12 02:52:00,
2013-02-11 19:00:00,51.0,34.0,-100.00,NNW,339,2.0,-999.0,52,0.00,,,-99.99,,2013-02-12 03:00:00,
2013-02-11 19:21:00,51.0,34.0,-100.00,NNW,339,2.0,-999.0,52,0.00,,,-99.99,,2013-02-12 03:21:00,
2013-02-11 19:32:00,51.0,34.0,-100.00,NNW,339,2.0,-999.0,52,0.00,,,-99.99,,2013-02-12 03:32:00,
2013-02-11 19:42:00,51.0,34.0,-100.00,NNW,339,2.0,-999.0,52,0.00,,,-99.99,,2013-02-12 03:42:00,
2013-02-11 19:52:00,51.0,34.0,-100.00,NNW,339,2.0,-999.0,52,0.00,,,-99.99,,2013-02-12 03:52:00,
2013-02-11 20:00:00,47.0,36.0,-100.00,East,99,3.0,-999.0,65,0.00,,,-99.99,,2013-02-12 04:00:00,
2013-02-11 20:21:00,47.0,36.0,-100.00,East,99,3.0,-999.0,65,0.00,,,-99.99,,2013-02-12 04:21:00,
2013-02-11 20:32:00,47.0,36.0,-100.00,East,99,3.0,-999.0,65,0.00,,,-99.99,,2013-02-12 04:32:00,
2013-02-11 20:42:00,47.0,36.0,-100.00,East,99,3.0,-999.0,65,0.00,,,-99.99,,2013-02-12 04:42:00,
2013-02-11 20:52:00,47.0,36.0,-100.00,East,99,3.0,-999.0,65,0.00,,,-99.99,,2013-02-12 04:52:00,
2013-02-11 21:00:00,43.0,34.0,-100.00,ESE,114,4.0,-999.0,72,0.00,,,-99.99,,2013-02-12 05:00:00,
2013-02-11 21:21:00,43.0,34.0,-100.00,ESE,114,4.0,-999.0,72,0.00,,,-99.99,,2013-02-12 05:21:00,
2013-02-11 21:32:00,43.0,34.0,-100.00,ESE,114,4.0,-999.0,72,0.00,,,-99.99,,2013-02-12 05:32:00,
2013-02-11 21:42:00,43.0,34.0,-100.00,ESE,114,4.0,-999.0,72,0.00,,,-99.99,,2013-02-12 05:42:00,
2013-02-11 21:52:00,43.0,34.0,-100.00,ESE,114,4.0,-999.0,72,0.00,,,-99.99,,2013-02-12 05:52:00,
2013-02-11 22:00:00,41.0,34.0,-100.00,ESE,120,4.0,-999.0,75,0.00,,,-99.99,,2013-02-12 06:00:00,
2013-02-11 22:22:00,41.0,34.0,-100.00,ESE,120,4.0,-999.0,75,0.00,,,-99.99,,2013-02-12 06:22:00,
2013-02-11 22:32:00,41.0,34.0,-100.00,ESE,120,4.0,-999.0,75,0.00,,,-99.99,,2013-02-12 06:32:00,
2013-02-11 22:42:00,41.0,34.0,-100.00,ESE,120,4.0,-999.0,75,0.00,,,-99.99,,2013-02-12 06:42:00,
2013-02-11 22:52:00,41.0,34.0,-100.00,ESE,120,4.0,-999.0,75,0.00,,,-99.99,,2013-02-12 06:52:00,
2013-02-11 23:00:00,40.0,33.0,-100.00,SSE,161,3.0,-999.0,76,0.00,,,-99.99,,2013-02-12 07:00:00,
2013-02-11 23:22:00,40.0,33.0,-100.00,SSE,161,3.0,-999.0,76,0.00,,,-99.99,,2013-02-12 07:22:00,
2013-02-11 23:32:00,40.0,33.0,-100.00,SSE,161,3.0,-999.0,76,0.00,,,-99.99,,2013-02-12 07:32:00,
2013-02-11 23:42:00,40.0,33.0,-100.00,SSE,161,3.0,-999.0,76,0.00,,,-99.99,,2013-02-12 07:42:00,
2013-02-11 23:52:00,40.0,33.0,-100.00,SSE,161,3.0,-999.0,76,0.00,,,-99.99,,2013-02-12 07:52:00,